Aktualne dane pomiarowe

Uwaga, wersja testowa! Automatyczne pobieranie danych za pomocą narzędzi lub skryptów to umożliwiających jest zabronione.

Dane meteo z obszaru Polski uzyskane na podstawie depesz SYNOP pobieranych co godzinę z NWS. Najedź myszką na symbol przedstawiony w tabeli, aby uzyskać informacje co do jego znaczenia. Prosimy pamiętać, że to testowa wersja strony, która jeszcze nie jest ukończona. Stworzono również jest krótki FAQ dotyczący korzystania z tej podstrony Anomalie temperatury w chwili obecnej odniesione są do okresu referencyjnego 1951-2016. Okres ten będzie później zmieniony na 1981-2010. Kliknij ikonę aby pobrać plik CSV. Kliknij ikonę aby wygenerować mapę synoptyczną dla danego terminu.

Wybierz Datę:    

        

Racibórz (12540)

Dane terminowe dla wybranej stacji. Kliknij datę, aby otrzymać dane z tego terminu dla wszystkich stacji.

TemperaturaZachmurzenieWiatrCiśnienieOpadyPogoda
 Data t td wb tx tn tg rh  Nt Nl Cl Cm Ch ws wd g1 g2 wx mslp ppp ch 24h 12h t ww ww w1 w2  
2019-07-04 23:00:00 11.6 7.9 9.3--- 7830.0wx-wx2wx---1018.3 993.4 -0.8---------
2019-07-04 22:00:00 12.7 8.0 9.8--- 7335.0wx-wx1wx--11018.9 994.1 0.1---------
2019-07-04 21:00:00 14.2 8.2 10.6--- 6717.0wx-wx2wx--21018.8 994.1 0.1---------
2019-07-04 20:00:00 15.9 8.4 11.4--- 6140.0wx-wx2wx--21018.7 994.2 -0.1---------
2019-07-04 19:00:00 19.1 8.7 13.0--- 5145.0wx-wx1wx--11018.3 994.0 -0.7---------
2019-07-04 18:00:00 22.6 5.9 13.5 24.3 14.7- 3445.0wx-wx2wx--21018.0 994.0 -1.2- 0.012------
2019-07-04 17:00:00 23.6 5.0 13.5--- 3045.0wx-wxwx3wx--31018.2 994.3 -1.5---------
2019-07-04 16:00:00 23.8 4.7 13.5--- 2930.0wx-wxwx3wx---1018.6 994.7 -1.7---------
2019-07-04 15:00:00 23.9 4.3 13.4--- 2840.0wxwxwxwx2wx--21019.1 995.2 -2.0---------
2019-07-04 14:00:00 23.6 4.5 13.3--- 2945.0wxwxwxwx2wx--21019.7 995.8 -2.0---------
2019-07-04 13:00:00 23.3 4.3 13.1--- 2930.0wxwxwxwx4wx--41020.4 996.4 -1.8---------
2019-07-04 12:00:00 22.0 4.1 12.5--- 3130.0wxwxwxwx4wx---1021.3 997.2 -1.1---------
2019-07-04 11:00:00 21.0 3.7 11.9--- 3235.0wxwxwxwx4wx-841022.0 997.8 -0.5---------
2019-07-04 10:00:00 20.4 3.1 11.4--- 3228.0wxwxwx4wx--41022.5 998.2 -0.3---------
2019-07-04 09:00:00 19.3 3.0 10.9--- 3430.0wxwxwx4wx--41022.6 998.3 -0.1---------
2019-07-04 08:00:00 19.0 5.4 11.6--- 4128.0wxwxwx2wx--21022.7 998.3 0.1---------
2019-07-04 07:00:00 18.0 6.2 11.5--- 4626.0wxwxwxwx1wx---1023.0 998.5 0.6---------
2019-07-04 06:00:00 14.7 6.5 10.0 20.3 6.6 5 5840.0wx-wx1wx--11023.1 998.4 0.7- 0.012----- 13.9
2019-07-04 05:00:00 12.1 6.8 8.9--- 7045.0wx-wx1wx--11023.2 998.2 0.5---------
2019-07-04 04:00:00 9.1 6.5 7.4--- 8440.0wx-2wx--21023.1 997.9 0.3---------
2019-07-04 03:00:00 6.7 4.5 5.3--- 8640.0wx-2wx--21023.1 997.7 0.1---------
2019-07-04 02:00:00 8.5 5.8 6.8--- 8345.0wx-1wx--11023.0 997.7 0.2---------
2019-07-04 01:00:00 8.5 5.1 6.4--- 7950.0wx-0---01022.9 997.6 0.1---------
2019-07-04 00:00:00 9.9 5.5 7.3--- 7450.0wx-2wx--21022.7 997.6 0.4- 0.06------
2019-07-03 23:00:00 10.8 5.7 7.8--- 7150.0wx-3wx--31022.6 997.5 0.9---------
2019-07-03 22:00:00 12.6 5.3 8.5--- 6150.0wx-wx2wx--21022.4 997.5 1.5---------
2019-07-03 21:00:00 14.2 6.5 9.8--- 6050.0wxwxwx3wx--31022.0 997.2 1.5---------
2019-07-03 20:00:00 16.3 7.2 11.1--- 5550.0wxwxwxwx2wx--21021.2 996.6 1.0---------
2019-07-03 19:00:00 18.4 4.2 10.9--- 3950.0wxwxwxwx2wx--21020.4 996.0 0.3---------
2019-07-03 18:00:00 20.3 3.5 11.5 22.7 16.0- 3345.0wxwxwx3wx-1031019.9 995.7 0.0- 0.012------
2019-07-03 17:00:00 21.3 3.5 12.0--- 3130.0wxwxwxwxwx5wx--51019.7 995.6 -0.1---------
2019-07-03 16:00:00 21.6 3.7 12.2--- 3135.0wxwxwxwxwx5wx--51019.8 995.7 -0.4---------
2019-07-03 15:00:00 21.5 4.1 12.3--- 3235.0wxwxwx5wx-1051019.8 995.7 -1.0---------
2019-07-03 14:00:00 22.2 4.7 12.8--- 3240.0wxwxwx5wx-1051019.7 995.7 -1.2---------
2019-07-03 13:00:00 22.0 5.0 12.8--- 3335.0wxwxwx5wx101051020.2 996.1 -1.0---------
2019-07-03 12:00:00 21.3 3.9 12.1--- 3240.0wxwxwx5wx-1051020.8 996.7 -0.4- 0.06------
2019-07-03 11:00:00 20.5 4.1 11.8--- 3435.0wxwxwx6wx-1061021.1 996.9 -0.3---------
2019-07-03 10:00:00 19.8 5.4 12.0--- 3935.0wxwxwx5wx101051021.4 997.1 0.1---------
2019-07-03 09:00:00 19.5 5.9 12.1--- 4130.0wxwxwx5wx---1021.4 997.1 0.5---------
2019-07-03 08:00:00 18.7 5.5 11.5--- 4240.0wxwxwxwx6wx--61021.6 997.2 0.7---------
2019-07-03 07:00:00 17.1 5.4 10.7--- 4640.0wxwxwxwx4wx--41021.5 997.0 0.8---------
2019-07-03 06:00:00 16.0 6.4 10.6 22.8 11.5 10 5335.0wx-wxwx3wx--31021.2 996.6 0.7- 0.012----- 9.3
2019-07-03 05:00:00 14.6 8.1 10.7--- 6535.0wx-wx3wx--31021.2 996.5 0.7---------
2019-07-03 04:00:00 12.8 8.9 10.3--- 7728.0wx-wx2wx--21021.1 996.2 0.7---------
2019-07-03 03:00:00 11.8 7.9 9.4--- 7735.0wx-wx3wx--31020.8 995.9 0.9---------
2019-07-03 02:00:00 12.6 8.5 10.0--- 7640.0wx-wx2wx--21020.7 995.8 1.4---------
2019-07-03 01:00:00 13.1 9.2 10.6--- 7735.0wx-4wx--41020.3 995.5 1.1---------
2019-07-03 00:00:00 13.7 9.5 11.0--- 7650.0wx-3wx--31019.7 995.0 0.8- 0.06------
19.2 ms

 

Print Friendly, PDF & Email